createdAt,value
2019-05-14T00:00:18.620Z,13.70
2019-05-14T00:02:48.843Z,12.03
2019-05-14T00:05:18.996Z,11.70
2019-05-14T00:07:49.081Z,13.20
2019-05-14T00:10:19.190Z,14.07
2019-05-14T00:12:51.108Z,15.38
2019-05-14T00:15:21.663Z,12.70
2019-05-14T00:17:52.348Z,12.05
2019-05-14T00:20:22.682Z,13.10
2019-05-14T00:22:53.779Z,16.25
2019-05-14T00:25:23.999Z,17.45
2019-05-14T00:27:54.101Z,13.72
2019-05-14T00:30:25.257Z,14.60
2019-05-14T00:32:55.504Z,12.53
2019-05-14T00:35:25.727Z,16.87
2019-05-14T00:37:55.811Z,15.98
2019-05-14T00:40:25.898Z,13.13
2019-05-14T00:42:56.159Z,12.60
2019-05-14T00:45:26.321Z,12.65
2019-05-14T00:47:56.565Z,15.08
2019-05-14T00:50:26.912Z,14.95
2019-05-14T00:52:57.058Z,14.45
2019-05-14T00:55:27.087Z,15.03
2019-05-14T00:57:57.240Z,15.18
2019-05-14T01:00:27.548Z,15.18
2019-05-14T01:02:57.616Z,17.20
2019-05-14T01:05:27.849Z,15.38
2019-05-14T01:07:59.015Z,13.60
2019-05-14T01:10:31.163Z,15.40
2019-05-14T01:13:01.298Z,15.80
2019-05-14T01:15:32.278Z,19.87
2019-05-14T01:18:05.592Z,16.65
2019-05-14T01:20:35.839Z,14.25
2019-05-14T01:23:05.999Z,16.57
2019-05-14T01:25:36.171Z,17.67
2019-05-14T01:28:06.334Z,18.67
2019-05-14T01:30:36.641Z,18.23
2019-05-14T01:33:06.867Z,19.82
2019-05-14T01:35:37.024Z,18.35
2019-05-14T01:38:07.180Z,13.43
2019-05-14T01:40:37.337Z,21.02
2019-05-14T01:43:07.492Z,18.20
2019-05-14T01:45:37.589Z,14.83
2019-05-14T01:48:07.812Z,16.20
2019-05-14T01:50:37.975Z,14.03
2019-05-14T01:53:08.206Z,16.32
2019-05-14T01:55:38.296Z,14.70
2019-05-14T01:58:08.460Z,15.15
2019-05-14T02:00:38.645Z,17.75
2019-05-14T02:03:08.864Z,14.60
2019-05-14T02:05:38.892Z,17.92
2019-05-14T02:08:09.200Z,18.75
2019-05-14T02:10:41.770Z,17.05
2019-05-14T02:13:12.249Z,16.20
2019-05-14T02:15:43.071Z,20.37
2019-05-14T02:18:13.275Z,18.85
2019-05-14T02:20:43.440Z,19.45
2019-05-14T02:23:13.660Z,17.42
2019-05-14T02:25:43.891Z,21.65
2019-05-14T02:28:14.120Z,18.15
2019-05-14T02:30:55.958Z,19.23
2019-05-14T02:33:19.085Z,17.65
2019-05-14T02:35:49.384Z,17.55
2019-05-14T02:38:20.881Z,17.62
2019-05-14T02:40:51.160Z,18.98
2019-05-14T02:43:21.291Z,17.73
2019-05-14T02:46:05.944Z,18.25
2019-05-14T02:48:23.633Z,19.90
2019-05-14T02:50:53.807Z,19.07
2019-05-14T02:53:24.101Z,20.97
2019-05-14T02:55:54.302Z,17.75
2019-05-14T02:58:24.504Z,19.95
2019-05-14T03:00:54.726Z,18.40
2019-05-14T03:03:24.965Z,21.93
2019-05-14T03:05:56.162Z,18.75
2019-05-14T03:08:26.393Z,20.35
2019-05-14T03:11:00.307Z,18.25
2019-05-14T03:13:29.732Z,19.80
2019-05-14T03:16:19.077Z,20.08
2019-05-14T03:18:32.103Z,21.02
2019-05-14T03:21:02.320Z,20.77
2019-05-14T03:23:32.561Z,18.20
2019-05-14T03:26:02.793Z,22.10
2019-05-14T03:28:33.948Z,20.75
2019-05-14T03:31:04.554Z,18.62
2019-05-14T03:33:34.808Z,22.95
2019-05-14T03:36:09.127Z,17.23
2019-05-14T03:38:39.573Z,20.62
2019-05-14T03:41:09.377Z,19.57
2019-05-14T03:43:40.455Z,19.15
2019-05-14T03:46:10.705Z,17.92
2019-05-14T03:48:40.875Z,18.15
2019-05-14T03:51:11.044Z,18.67
2019-05-14T03:53:55.926Z,15.93
2019-05-14T03:56:13.153Z,17.98
2019-05-14T03:58:43.307Z,17.77
2019-05-14T04:01:13.966Z,18.12
2019-05-14T04:03:44.354Z,17.92
2019-05-14T04:06:18.986Z,21.12
2019-05-14T04:08:49.759Z,22.65
2019-05-14T04:11:22.345Z,17.92
2019-05-14T04:13:55.066Z,19.70
2019-05-14T04:16:29.253Z,20.35
2019-05-14T04:19:02.348Z,32.08
2019-05-14T04:21:32.970Z,22.85
2019-05-14T04:24:04.383Z,21.85
2019-05-14T04:26:53.103Z,20.15
2019-05-14T04:29:10.924Z,21.40
2019-05-14T04:31:44.499Z,24.45
2019-05-14T04:34:14.839Z,22.95
2019-05-14T04:36:45.768Z,24.30
2019-05-14T04:39:15.855Z,20.27
2019-05-14T04:41:46.092Z,20.37
2019-05-14T04:44:18.921Z,25.77
2019-05-14T04:46:49.352Z,18.45
2019-05-14T04:49:20.117Z,18.70
2019-05-14T04:51:51.440Z,21.65
2019-05-14T04:54:21.608Z,20.97
2019-05-14T04:56:51.756Z,20.65
2019-05-14T04:59:21.919Z,21.00
2019-05-14T05:01:52.104Z,19.57
2019-05-14T05:04:23.278Z,22.75
2019-05-14T05:06:53.381Z,15.15
2019-05-14T05:09:23.389Z,18.52
2019-05-14T05:11:53.539Z,21.25
2019-05-14T05:14:24.018Z,18.05
2019-05-14T05:16:54.175Z,18.60
2019-05-14T05:19:24.193Z,18.85
2019-05-14T05:21:58.544Z,18.60
2019-05-14T05:24:28.776Z,25.12
2019-05-14T05:26:59.137Z,19.40
2019-05-14T05:29:29.300Z,17.77
2019-05-14T05:31:59.577Z,20.27
2019-05-14T05:34:29.820Z,17.95
2019-05-14T05:37:00.004Z,20.05
2019-05-14T05:39:30.208Z,17.30
2019-05-14T05:42:00.364Z,18.10
2019-05-14T05:44:30.598Z,18.65
2019-05-14T05:47:01.755Z,17.92
2019-05-14T05:49:31.918Z,18.60
2019-05-14T05:52:01.992Z,19.48
2019-05-14T05:54:32.180Z,17.50
2019-05-14T05:57:02.349Z,17.00
2019-05-14T05:59:32.582Z,18.92
2019-05-14T06:02:02.791Z,23.32
2019-05-14T06:04:32.905Z,17.12
2019-05-14T06:07:03.173Z,20.00
2019-05-14T06:09:33.351Z,17.25
2019-05-14T06:12:03.516Z,23.07
2019-05-14T06:14:33.668Z,17.00
2019-05-14T06:17:03.837Z,13.90
2019-05-14T06:19:33.922Z,19.57
2019-05-14T06:22:04.388Z,12.07
2019-05-14T06:24:34.663Z,13.05
2019-05-14T06:27:04.964Z,20.43
2019-05-14T06:29:35.127Z,12.63
2019-05-14T06:32:05.348Z,15.43
2019-05-14T06:34:38.025Z,12.98
2019-05-14T06:37:08.373Z,13.53
2019-05-14T06:39:39.264Z,14.15
2019-05-14T06:42:10.547Z,15.63
2019-05-14T06:44:40.767Z,11.03
2019-05-14T06:47:11.008Z,10.20
2019-05-14T06:49:41.155Z,13.13
2019-05-14T06:52:11.410Z,11.53
2019-05-14T06:54:41.624Z,10.63
2019-05-14T06:57:11.741Z,10.82
2019-05-14T06:59:41.787Z,8.53
2019-05-14T07:02:12.001Z,12.03
2019-05-14T07:04:42.237Z,9.15
2019-05-14T07:07:13.518Z,10.32
2019-05-14T07:09:43.681Z,10.20
2019-05-14T07:12:13.892Z,10.05
2019-05-14T07:14:44.069Z,12.13
2019-05-14T07:17:14.214Z,10.35
2019-05-14T07:19:44.442Z,9.43
2019-05-14T07:22:15.656Z,11.53
2019-05-14T07:24:45.822Z,10.60
2019-05-14T07:27:15.895Z,10.28
2019-05-14T07:29:46.125Z,13.30
2019-05-14T07:32:18.919Z,10.38
2019-05-14T07:34:48.350Z,11.53
2019-05-14T07:37:18.551Z,8.40
2019-05-14T07:39:48.918Z,12.35
2019-05-14T07:42:19.168Z,8.38
2019-05-14T07:44:49.258Z,11.80
2019-05-14T07:47:19.341Z,9.55
2019-05-14T07:49:49.562Z,8.00
2019-05-14T07:52:19.962Z,10.35
2019-05-14T07:54:50.188Z,11.00
2019-05-14T07:57:20.272Z,10.55
2019-05-14T07:59:50.508Z,8.38
2019-05-14T08:02:20.731Z,5.72
2019-05-14T08:04:51.884Z,7.17
2019-05-14T08:07:22.023Z,9.63
2019-05-14T08:09:52.164Z,7.03
2019-05-14T08:12:22.316Z,6.92
2019-05-14T08:15:13.071Z,7.75
2019-05-14T08:17:24.260Z,7.58
2019-05-14T08:19:54.407Z,6.33
2019-05-14T08:22:24.621Z,6.83
2019-05-14T08:24:57.991Z,7.25
2019-05-14T08:27:30.915Z,6.28
2019-05-14T08:29:59.480Z,6.75
2019-05-14T08:32:29.622Z,6.50
2019-05-14T08:34:59.699Z,7.83
2019-05-14T08:37:29.839Z,9.98
2019-05-14T08:40:00.001Z,6.42
2019-05-14T08:42:34.038Z,5.17
2019-05-14T08:45:04.948Z,7.60
2019-05-14T08:47:34.095Z,8.10
2019-05-14T08:50:04.625Z,7.15
2019-05-14T08:52:34.767Z,6.12
2019-05-14T08:55:10.946Z,7.40
2019-05-14T08:57:38.922Z,10.78
2019-05-14T09:00:13.930Z,9.08
2019-05-14T09:02:42.616Z,7.08
2019-05-14T09:05:12.854Z,4.75
2019-05-14T09:07:43.004Z,8.90
2019-05-14T09:10:13.230Z,5.85
2019-05-14T09:12:43.330Z,9.18
2019-05-14T09:15:13.635Z,10.32
2019-05-14T09:17:43.869Z,7.85
2019-05-14T09:20:14.221Z,7.97
2019-05-14T09:22:44.528Z,4.00
2019-05-14T09:25:14.932Z,9.93
2019-05-14T09:27:45.099Z,11.50
2019-05-14T09:30:15.265Z,6.37
2019-05-14T09:32:45.419Z,6.20
2019-05-14T09:35:15.636Z,8.55
2019-05-14T09:37:45.785Z,6.53
2019-05-14T09:40:16.364Z,6.50
2019-05-14T09:42:49.721Z,4.80
2019-05-14T09:45:18.887Z,6.58
2019-05-14T09:47:50.752Z,11.28
2019-05-14T09:50:23.310Z,8.10
2019-05-14T09:52:55.119Z,7.55
2019-05-14T09:55:25.436Z,9.95
2019-05-14T09:57:55.528Z,6.80
2019-05-14T10:00:25.760Z,5.33
2019-05-14T10:02:55.984Z,5.33
2019-05-14T10:05:26.219Z,8.80
2019-05-14T10:07:56.375Z,5.90
2019-05-14T10:10:48.638Z,8.50
2019-05-14T10:13:17.846Z,8.25
2019-05-14T10:15:48.612Z,6.35
2019-05-14T10:18:18.980Z,6.22
2019-05-14T10:20:49.652Z,10.65
2019-05-14T10:23:19.884Z,5.58
2019-05-14T10:25:50.099Z,9.58
2019-05-14T10:28:20.259Z,6.72
2019-05-14T10:30:50.420Z,7.35
2019-05-14T10:33:20.557Z,6.25
2019-05-14T10:35:50.864Z,5.87
2019-05-14T10:38:21.019Z,6.58
2019-05-14T10:40:51.192Z,6.22
2019-05-14T10:43:21.475Z,8.98
2019-05-14T10:45:51.631Z,8.75
2019-05-14T10:48:21.845Z,13.30
2019-05-14T10:51:01.985Z,6.37
2019-05-14T10:53:23.844Z,5.55
2019-05-14T10:55:54.207Z,7.92
2019-05-14T10:58:24.296Z,4.97
2019-05-14T11:00:54.395Z,7.62
2019-05-14T11:03:24.610Z,5.72
2019-05-14T11:05:54.740Z,8.13
2019-05-14T11:08:24.835Z,7.92
2019-05-14T11:10:55.027Z,5.47
2019-05-14T11:13:25.330Z,7.60
2019-05-14T11:15:55.554Z,7.80
2019-05-14T11:18:25.711Z,8.33
2019-05-14T11:21:16.218Z,7.15
2019-05-14T11:23:29.716Z,6.72
2019-05-14T11:25:59.690Z,6.40
2019-05-14T11:28:29.915Z,7.60
2019-05-14T11:31:01.312Z,6.67
2019-05-14T11:33:31.386Z,6.50
2019-05-14T11:36:01.619Z,5.90
2019-05-14T11:38:36.862Z,5.75
2019-05-14T11:41:03.733Z,6.65
2019-05-14T11:43:33.993Z,7.67
2019-05-14T11:46:04.376Z,6.45
2019-05-14T11:48:34.510Z,7.05
2019-05-14T11:51:04.709Z,8.85
2019-05-14T11:53:34.794Z,5.65
2019-05-14T11:56:05.030Z,7.87
2019-05-14T11:58:35.190Z,5.65
2019-05-14T12:01:05.322Z,4.62
2019-05-14T12:03:35.476Z,10.23
2019-05-14T12:06:05.706Z,3.80
2019-05-14T12:08:35.930Z,8.28
2019-05-14T12:11:08.641Z,8.78
2019-05-14T12:13:39.406Z,6.40
2019-05-14T12:16:09.633Z,6.47
2019-05-14T12:18:41.657Z,7.72
2019-05-14T12:21:11.705Z,5.15
2019-05-14T12:23:41.906Z,6.33
2019-05-14T12:26:12.135Z,6.03
2019-05-14T12:28:42.277Z,6.55
2019-05-14T12:31:12.496Z,5.42
2019-05-14T12:33:42.791Z,5.22
2019-05-14T12:36:12.936Z,5.53
2019-05-14T12:38:43.095Z,8.48
2019-05-14T12:41:13.542Z,9.45
2019-05-14T12:43:44.153Z,5.67
2019-05-14T12:46:14.295Z,5.72
2019-05-14T12:48:45.468Z,8.73
2019-05-14T12:51:18.436Z,6.75
2019-05-14T12:53:48.763Z,7.58
2019-05-14T12:56:19.223Z,3.80
2019-05-14T12:58:49.484Z,9.90
2019-05-14T13:01:20.254Z,9.00
2019-05-14T13:03:51.688Z,8.05
2019-05-14T13:06:21.861Z,5.28
2019-05-14T13:08:51.999Z,6.42
2019-05-14T13:11:23.306Z,7.70
2019-05-14T13:13:53.446Z,6.53
2019-05-14T13:16:23.674Z,5.17
2019-05-14T13:18:53.816Z,8.70
2019-05-14T13:21:24.037Z,5.15
2019-05-14T13:23:54.163Z,5.87
2019-05-14T13:26:24.327Z,6.00
2019-05-14T13:28:54.552Z,6.60
2019-05-14T13:31:24.706Z,3.33
2019-05-14T13:33:54.872Z,5.62
2019-05-14T13:36:25.112Z,5.30
2019-05-14T13:38:55.392Z,8.48
2019-05-14T13:41:25.628Z,6.85
2019-05-14T13:43:58.460Z,7.37
2019-05-14T13:46:28.647Z,7.20
2019-05-14T13:49:00.208Z,5.37
2019-05-14T13:51:33.382Z,11.22
2019-05-14T13:54:02.199Z,4.62
2019-05-14T13:56:32.347Z,3.70
2019-05-14T13:59:02.581Z,7.45
2019-05-14T14:01:32.822Z,8.43
2019-05-14T14:04:10.900Z,8.83
2019-05-14T14:06:34.915Z,4.20
2019-05-14T14:09:12.024Z,5.10
2019-05-14T14:11:38.428Z,8.30
2019-05-14T14:14:09.001Z,7.58
2019-05-14T14:16:39.694Z,6.92
2019-05-14T14:19:09.829Z,4.87
2019-05-14T14:21:40.107Z,2.65
2019-05-14T14:24:10.270Z,6.58
2019-05-14T14:26:40.409Z,4.83
2019-05-14T14:29:10.632Z,5.80
2019-05-14T14:31:41.712Z,4.33
2019-05-14T14:34:12.269Z,3.55
2019-05-14T14:36:42.497Z,6.03
2019-05-14T14:39:12.588Z,7.12
2019-05-14T14:41:44.250Z,6.25
2019-05-14T14:44:14.563Z,5.42
2019-05-14T14:46:44.809Z,10.18
2019-05-14T14:49:14.980Z,5.35
2019-05-14T14:51:45.441Z,9.45
2019-05-14T14:54:16.702Z,4.33
2019-05-14T14:56:48.706Z,6.47
2019-05-14T14:59:19.120Z,5.97
2019-05-14T15:02:13.769Z,5.87
2019-05-14T15:04:43.993Z,5.42
2019-05-14T15:07:14.001Z,4.37
2019-05-14T15:09:44.203Z,5.08
2019-05-14T15:12:14.425Z,6.97
2019-05-14T15:14:44.504Z,5.12
2019-05-14T15:17:14.793Z,7.22
2019-05-14T15:19:45.008Z,5.20
2019-05-14T15:22:15.175Z,7.55
2019-05-14T15:24:45.347Z,5.40
2019-05-14T15:27:15.665Z,4.80
2019-05-14T15:29:48.704Z,5.62
2019-05-14T15:32:19.650Z,5.22
2019-05-14T15:34:50.680Z,3.98
2019-05-14T15:37:21.036Z,4.90
2019-05-14T15:39:51.178Z,5.10
2019-05-14T15:42:21.418Z,8.98
2019-05-14T15:44:55.716Z,6.97
2019-05-14T15:47:23.353Z,6.58
2019-05-14T15:49:53.454Z,10.15
2019-05-14T15:52:23.745Z,3.92
2019-05-14T15:54:53.958Z,4.47
2019-05-14T15:57:24.186Z,3.50
2019-05-14T15:59:54.403Z,3.30
2019-05-14T16:02:24.748Z,5.05
2019-05-14T16:04:54.869Z,8.18
2019-05-14T16:07:25.043Z,6.20
2019-05-14T16:09:55.276Z,10.48
2019-05-14T16:12:28.637Z,4.58
2019-05-14T16:14:57.128Z,3.80
2019-05-14T16:17:30.366Z,4.65
2019-05-14T16:20:00.073Z,4.97
2019-05-14T16:22:30.371Z,6.03
2019-05-14T16:25:01.136Z,6.92
2019-05-14T16:27:31.349Z,3.22
2019-05-14T16:30:01.543Z,3.87
2019-05-14T16:32:32.055Z,3.33
2019-05-14T16:35:02.270Z,4.67
2019-05-14T16:37:32.515Z,4.60
2019-05-14T16:40:02.820Z,5.12
2019-05-14T16:42:34.052Z,6.08
2019-05-14T16:45:04.976Z,5.72
2019-05-14T16:47:35.245Z,4.30
2019-05-14T16:50:08.867Z,4.25
2019-05-14T16:52:42.128Z,7.37
2019-05-14T16:55:22.984Z,7.55
2019-05-14T16:57:43.134Z,4.75
2019-05-14T17:00:13.708Z,5.90
2019-05-14T17:02:43.913Z,4.60
2019-05-14T17:05:14.426Z,10.30
2019-05-14T17:07:44.634Z,5.10
2019-05-14T17:10:14.982Z,5.92
2019-05-14T17:12:53.661Z,4.55
2019-05-14T17:15:18.126Z,7.00
2019-05-14T17:17:48.454Z,9.83
2019-05-14T17:20:19.327Z,5.55
2019-05-14T17:22:50.789Z,4.75
2019-05-14T17:25:26.976Z,6.17
2019-05-14T17:27:53.376Z,13.95
2019-05-14T17:30:23.678Z,4.72
2019-05-14T17:32:53.916Z,4.47
2019-05-14T17:35:24.053Z,8.68
2019-05-14T17:37:54.145Z,7.25
2019-05-14T17:40:24.368Z,6.72
2019-05-14T17:42:54.520Z,8.68
2019-05-14T17:45:28.254Z,8.03
2019-05-14T17:47:58.492Z,9.33
2019-05-14T17:50:29.337Z,6.47
2019-05-14T17:53:00.276Z,11.53
2019-05-14T17:55:43.504Z,11.70
2019-05-14T17:58:03.403Z,8.38
2019-05-14T18:00:33.706Z,7.78
2019-05-14T18:03:04.006Z,7.72
2019-05-14T18:05:34.211Z,12.50
2019-05-14T18:08:04.474Z,6.42
2019-05-14T18:10:34.660Z,7.75
2019-05-14T18:13:04.765Z,6.62
2019-05-14T18:15:34.967Z,11.83
2019-05-14T18:18:05.067Z,6.55
2019-05-14T18:20:35.359Z,9.35
2019-05-14T18:23:05.593Z,6.83
2019-05-14T18:25:35.812Z,11.85
2019-05-14T18:28:09.057Z,7.70
2019-05-14T18:30:38.671Z,5.83
2019-05-14T18:33:09.077Z,10.23
2019-05-14T18:35:45.235Z,8.70
2019-05-14T18:38:11.136Z,7.50
2019-05-14T18:40:41.301Z,7.58
2019-05-14T18:43:11.582Z,7.17
2019-05-14T18:45:41.726Z,6.42
2019-05-14T18:48:11.961Z,11.75
2019-05-14T18:50:42.123Z,12.93
2019-05-14T18:53:13.092Z,8.05
2019-05-14T18:55:43.564Z,11.22
2019-05-14T18:58:13.632Z,9.38
2019-05-14T19:00:43.792Z,9.68
2019-05-14T19:03:14.022Z,8.85
2019-05-14T19:05:44.193Z,8.95
2019-05-14T19:08:14.346Z,12.28
2019-05-14T19:10:44.719Z,8.28
2019-05-14T19:13:15.293Z,8.58
2019-05-14T19:15:48.325Z,9.80
2019-05-14T19:18:19.800Z,15.25
2019-05-14T19:20:49.916Z,12.10
2019-05-14T19:23:20.012Z,9.53
2019-05-14T19:25:50.155Z,8.03
2019-05-14T19:28:20.280Z,10.82
2019-05-14T19:30:50.492Z,6.47
2019-05-14T19:33:20.824Z,5.80
2019-05-14T19:35:51.046Z,6.28
2019-05-14T19:38:21.139Z,6.37
2019-05-14T19:40:51.306Z,7.30
2019-05-14T19:43:21.487Z,10.20
2019-05-14T19:45:52.548Z,7.97
2019-05-14T19:48:22.769Z,8.78
2019-05-14T19:50:53.056Z,12.82
2019-05-14T19:53:23.379Z,9.08
2019-05-14T19:55:53.516Z,7.85
2019-05-14T19:58:23.822Z,10.58
2019-05-14T20:00:53.951Z,9.65
2019-05-14T20:03:24.245Z,9.85
2019-05-14T20:05:54.380Z,10.75
2019-05-14T20:08:25.708Z,9.78
2019-05-14T20:10:55.846Z,13.88
2019-05-14T20:13:28.528Z,9.80
2019-05-14T20:15:59.069Z,10.40
2019-05-14T20:18:29.415Z,16.52
2019-05-14T20:20:59.640Z,12.37
2019-05-14T20:23:29.777Z,11.55
2019-05-14T20:25:59.876Z,11.35
2019-05-14T20:28:30.091Z,14.73
2019-05-14T20:31:01.698Z,8.38
2019-05-14T20:33:31.863Z,11.08
2019-05-14T20:36:02.005Z,14.25
2019-05-14T20:38:32.070Z,9.28
2019-05-14T20:41:02.305Z,9.15
2019-05-14T20:43:32.527Z,11.15
2019-05-14T20:46:02.824Z,10.15
2019-05-14T20:48:32.909Z,11.97
2019-05-14T20:51:03.062Z,13.30
2019-05-14T20:53:34.367Z,10.58
2019-05-14T20:56:04.522Z,13.68
2019-05-14T20:58:34.692Z,10.50
2019-05-14T21:01:05.155Z,10.15
2019-05-14T21:03:35.303Z,12.73
2019-05-14T21:06:05.611Z,11.10
2019-05-14T21:08:37.833Z,11.65
2019-05-14T21:11:08.300Z,9.43
2019-05-14T21:13:38.660Z,8.45
2019-05-14T21:16:10.871Z,14.87
2019-05-14T21:18:41.286Z,12.18
2019-05-14T21:21:11.611Z,10.13
2019-05-14T21:23:41.762Z,15.90
2019-05-14T21:26:11.920Z,18.65
2019-05-14T21:28:42.000Z,9.43
2019-05-14T21:31:13.154Z,14.30
2019-05-14T21:33:43.280Z,12.18
2019-05-14T21:36:13.535Z,12.20
2019-05-14T21:38:43.669Z,9.78
2019-05-14T21:41:13.894Z,12.80
2019-05-14T21:43:44.048Z,14.47
2019-05-14T21:46:14.275Z,12.63
2019-05-14T21:48:44.419Z,16.90
2019-05-14T21:51:14.497Z,13.38
2019-05-14T21:53:44.650Z,16.30
2019-05-14T21:56:14.905Z,15.08
2019-05-14T21:58:45.025Z,14.00
2019-05-14T22:01:15.409Z,15.05
2019-05-14T22:03:45.654Z,12.03
2019-05-14T22:06:18.138Z,12.33
2019-05-14T22:08:48.773Z,15.80
2019-05-14T22:11:19.150Z,12.25
2019-05-14T22:13:49.746Z,11.20
2019-05-14T22:16:21.029Z,10.85
2019-05-14T22:18:51.203Z,16.20
2019-05-14T22:21:21.422Z,10.05
2019-05-14T22:23:52.572Z,13.80
2019-05-14T22:26:22.639Z,14.60
2019-05-14T22:28:52.801Z,11.90
2019-05-14T22:31:22.972Z,12.70
2019-05-14T22:33:53.128Z,9.58
2019-05-14T22:36:24.416Z,15.35
2019-05-14T22:38:54.581Z,16.15
2019-05-14T22:41:24.794Z,13.93
2019-05-14T22:43:56.888Z,13.65
2019-05-14T22:46:26.854Z,13.78
2019-05-14T22:48:58.683Z,14.33
2019-05-14T22:51:33.057Z,10.72
2019-05-14T22:54:01.815Z,14.07
2019-05-14T22:56:32.025Z,14.35
2019-05-14T22:59:02.251Z,10.55
2019-05-14T23:01:32.461Z,12.23
2019-05-14T23:04:02.711Z,12.28
2019-05-14T23:06:32.937Z,12.78
2019-05-14T23:09:04.752Z,12.75
2019-05-14T23:11:35.062Z,14.87
2019-05-14T23:14:05.300Z,12.78
2019-05-14T23:16:39.205Z,9.13
2019-05-14T23:19:07.988Z,12.78
2019-05-14T23:21:39.139Z,9.95
2019-05-14T23:24:09.437Z,11.38
2019-05-14T23:26:39.764Z,9.95
2019-05-14T23:29:09.910Z,14.23
2019-05-14T23:31:40.152Z,13.50
2019-05-14T23:34:10.434Z,11.20
2019-05-14T23:36:40.602Z,13.85
2019-05-14T23:39:10.722Z,11.95
2019-05-14T23:41:40.819Z,13.03
2019-05-14T23:44:11.026Z,17.27
2019-05-14T23:46:41.331Z,12.80
2019-05-14T23:49:12.140Z,10.63
2019-05-14T23:51:42.396Z,11.28
2019-05-14T23:54:12.550Z,13.88
2019-05-14T23:56:42.687Z,14.80
2019-05-14T23:59:12.993Z,9.90
